sensor_id;sensor_type;location;lat;lon;timestamp;P1;durP1;ratioP1;P2;durP2;ratioP2
15466;SDS011;7834;49.452;11.056;2024-01-30T00:01:57;16.83;;;9.45;;
15466;SDS011;7834;49.452;11.056;2024-01-30T00:04:23;15.00;;;9.47;;
15466;SDS011;7834;49.452;11.056;2024-01-30T00:06:51;16.05;;;9.43;;
15466;SDS011;7834;49.452;11.056;2024-01-30T00:09:18;15.63;;;9.50;;
15466;SDS011;7834;49.452;11.056;2024-01-30T00:11:43;14.18;;;9.50;;
15466;SDS011;7834;49.452;11.056;2024-01-30T00:14:09;14.93;;;9.67;;
15466;SDS011;7834;49.452;11.056;2024-01-30T00:16:34;16.73;;;9.73;;
15466;SDS011;7834;49.452;11.056;2024-01-30T00:19:00;16.83;;;9.60;;
15466;SDS011;7834;49.452;11.056;2024-01-30T00:21:27;15.05;;;9.30;;
15466;SDS011;7834;49.452;11.056;2024-01-30T00:23:53;13.90;;;9.37;;
15466;SDS011;7834;49.452;11.056;2024-01-30T00:26:18;14.68;;;9.32;;
15466;SDS011;7834;49.452;11.056;2024-01-30T00:28:47;17.52;;;9.80;;
15466;SDS011;7834;49.452;11.056;2024-01-30T00:31:12;15.48;;;9.48;;
15466;SDS011;7834;49.452;11.056;2024-01-30T00:33:38;13.97;;;9.30;;
15466;SDS011;7834;49.452;11.056;2024-01-30T00:36:05;16.27;;;9.30;;
15466;SDS011;7834;49.452;11.056;2024-01-30T00:38:30;14.73;;;9.05;;
15466;SDS011;7834;49.452;11.056;2024-01-30T00:40:56;13.17;;;8.37;;
15466;SDS011;7834;49.452;11.056;2024-01-30T00:43:21;12.67;;;8.87;;
15466;SDS011;7834;49.452;11.056;2024-01-30T00:45:47;13.83;;;8.33;;
15466;SDS011;7834;49.452;11.056;2024-01-30T00:48:13;10.73;;;7.80;;
15466;SDS011;7834;49.452;11.056;2024-01-30T00:50:39;12.13;;;8.40;;
15466;SDS011;7834;49.452;11.056;2024-01-30T00:53:04;11.95;;;7.43;;
15466;SDS011;7834;49.452;11.056;2024-01-30T00:55:30;11.10;;;7.43;;
15466;SDS011;7834;49.452;11.056;2024-01-30T00:57:55;10.18;;;7.55;;
15466;SDS011;7834;49.452;11.056;2024-01-30T01:00:24;10.43;;;6.70;;
15466;SDS011;7834;49.452;11.056;2024-01-30T01:03:00;12.10;;;7.65;;
15466;SDS011;7834;49.452;11.056;2024-01-30T01:05:25;11.25;;;7.50;;
15466;SDS011;7834;49.452;11.056;2024-01-30T01:07:51;10.30;;;7.00;;
15466;SDS011;7834;49.452;11.056;2024-01-30T01:10:17;10.32;;;7.35;;
15466;SDS011;7834;49.452;11.056;2024-01-30T01:12:42;10.87;;;7.10;;
15466;SDS011;7834;49.452;11.056;2024-01-30T01:15:08;10.75;;;7.40;;
15466;SDS011;7834;49.452;11.056;2024-01-30T01:17:37;10.05;;;7.30;;
15466;SDS011;7834;49.452;11.056;2024-01-30T01:20:02;10.60;;;7.30;;
15466;SDS011;7834;49.452;11.056;2024-01-30T01:22:29;10.73;;;7.27;;
15466;SDS011;7834;49.452;11.056;2024-01-30T01:24:55;11.13;;;7.07;;
15466;SDS011;7834;49.452;11.056;2024-01-30T01:27:23;9.60;;;7.00;;
15466;SDS011;7834;49.452;11.056;2024-01-30T01:29:49;9.52;;;7.07;;
15466;SDS011;7834;49.452;11.056;2024-01-30T01:32:14;10.30;;;7.20;;
15466;SDS011;7834;49.452;11.056;2024-01-30T01:34:40;9.93;;;7.20;;
15466;SDS011;7834;49.452;11.056;2024-01-30T01:37:06;11.53;;;7.70;;
15466;SDS011;7834;49.452;11.056;2024-01-30T01:39:32;9.57;;;7.65;;
15466;SDS011;7834;49.452;11.056;2024-01-30T01:41:58;12.13;;;7.43;;
15466;SDS011;7834;49.452;11.056;2024-01-30T01:44:23;10.60;;;7.40;;
15466;SDS011;7834;49.452;11.056;2024-01-30T01:46:49;11.70;;;7.40;;
15466;SDS011;7834;49.452;11.056;2024-01-30T01:49:14;10.05;;;6.93;;
15466;SDS011;7834;49.452;11.056;2024-01-30T01:51:40;9.63;;;6.80;;
15466;SDS011;7834;49.452;11.056;2024-01-30T01:54:06;12.40;;;8.10;;
15466;SDS011;7834;49.452;11.056;2024-01-30T01:56:32;9.30;;;6.90;;
15466;SDS011;7834;49.452;11.056;2024-01-30T01:59:05;10.45;;;6.88;;
15466;SDS011;7834;49.452;11.056;2024-01-30T02:01:32;9.25;;;6.40;;
15466;SDS011;7834;49.452;11.056;2024-01-30T02:03:58;10.35;;;6.53;;
15466;SDS011;7834;49.452;11.056;2024-01-30T02:06:24;9.48;;;6.30;;
15466;SDS011;7834;49.452;11.056;2024-01-30T02:08:50;9.37;;;6.00;;
15466;SDS011;7834;49.452;11.056;2024-01-30T02:11:16;7.82;;;5.70;;
15466;SDS011;7834;49.452;11.056;2024-01-30T02:13:42;7.90;;;5.65;;
15466;SDS011;7834;49.452;11.056;2024-01-30T02:16:08;7.95;;;5.38;;
15466;SDS011;7834;49.452;11.056;2024-01-30T02:18:33;6.97;;;5.30;;
15466;SDS011;7834;49.452;11.056;2024-01-30T02:21:16;8.35;;;5.57;;
15466;SDS011;7834;49.452;11.056;2024-01-30T02:23:46;8.13;;;5.65;;
15466;SDS011;7834;49.452;11.056;2024-01-30T02:26:12;7.53;;;5.53;;
15466;SDS011;7834;49.452;11.056;2024-01-30T02:28:38;9.13;;;5.60;;
15466;SDS011;7834;49.452;11.056;2024-01-30T02:31:03;8.30;;;5.73;;
15466;SDS011;7834;49.452;11.056;2024-01-30T02:33:29;8.90;;;5.68;;
15466;SDS011;7834;49.452;11.056;2024-01-30T02:35:54;8.17;;;6.00;;
15466;SDS011;7834;49.452;11.056;2024-01-30T02:38:20;10.57;;;6.45;;
15466;SDS011;7834;49.452;11.056;2024-01-30T02:40:46;9.90;;;6.13;;
15466;SDS011;7834;49.452;11.056;2024-01-30T02:43:11;8.07;;;5.63;;
15466;SDS011;7834;49.452;11.056;2024-01-30T02:45:37;9.43;;;6.00;;
15466;SDS011;7834;49.452;11.056;2024-01-30T02:48:02;8.93;;;6.10;;
15466;SDS011;7834;49.452;11.056;2024-01-30T02:50:28;10.32;;;6.65;;
15466;SDS011;7834;49.452;11.056;2024-01-30T02:52:53;8.33;;;5.97;;
15466;SDS011;7834;49.452;11.056;2024-01-30T02:55:19;9.40;;;6.43;;
15466;SDS011;7834;49.452;11.056;2024-01-30T02:57:44;9.35;;;6.13;;
15466;SDS011;7834;49.452;11.056;2024-01-30T03:00:10;7.87;;;6.30;;
15466;SDS011;7834;49.452;11.056;2024-01-30T03:02:39;9.05;;;6.10;;
15466;SDS011;7834;49.452;11.056;2024-01-30T03:05:05;9.65;;;6.68;;
15466;SDS011;7834;49.452;11.056;2024-01-30T03:07:31;10.50;;;6.38;;
15466;SDS011;7834;49.452;11.056;2024-01-30T03:09:57;9.32;;;6.57;;
15466;SDS011;7834;49.452;11.056;2024-01-30T03:12:22;8.67;;;6.43;;
15466;SDS011;7834;49.452;11.056;2024-01-30T03:14:48;10.10;;;6.57;;
15466;SDS011;7834;49.452;11.056;2024-01-30T03:17:14;9.80;;;6.28;;
15466;SDS011;7834;49.452;11.056;2024-01-30T03:19:40;9.10;;;6.82;;
15466;SDS011;7834;49.452;11.056;2024-01-30T03:22:06;9.67;;;6.73;;
15466;SDS011;7834;49.452;11.056;2024-01-30T03:24:31;9.80;;;6.40;;
15466;SDS011;7834;49.452;11.056;2024-01-30T03:26:57;9.90;;;6.90;;
15466;SDS011;7834;49.452;11.056;2024-01-30T03:29:22;10.00;;;7.60;;
15466;SDS011;7834;49.452;11.056;2024-01-30T03:31:48;8.33;;;6.43;;
15466;SDS011;7834;49.452;11.056;2024-01-30T03:34:13;9.50;;;6.77;;
15466;SDS011;7834;49.452;11.056;2024-01-30T03:36:39;11.40;;;6.83;;
15466;SDS011;7834;49.452;11.056;2024-01-30T03:39:04;10.80;;;6.77;;
15466;SDS011;7834;49.452;11.056;2024-01-30T03:41:30;9.37;;;6.70;;
15466;SDS011;7834;49.452;11.056;2024-01-30T03:43:55;9.80;;;6.67;;
15466;SDS011;7834;49.452;11.056;2024-01-30T03:46:21;9.37;;;6.57;;
15466;SDS011;7834;49.452;11.056;2024-01-30T03:48:46;10.00;;;6.80;;
15466;SDS011;7834;49.452;11.056;2024-01-30T03:51:12;10.47;;;6.67;;
15466;SDS011;7834;49.452;11.056;2024-01-30T03:53:41;11.07;;;6.88;;
15466;SDS011;7834;49.452;11.056;2024-01-30T03:56:07;10.07;;;7.05;;
15466;SDS011;7834;49.452;11.056;2024-01-30T03:58:33;10.07;;;7.40;;
15466;SDS011;7834;49.452;11.056;2024-01-30T04:00:58;15.30;;;9.60;;
15466;SDS011;7834;49.452;11.056;2024-01-30T04:03:24;13.20;;;9.53;;
15466;SDS011;7834;49.452;11.056;2024-01-30T04:05:51;14.85;;;9.18;;
15466;SDS011;7834;49.452;11.056;2024-01-30T04:08:17;12.32;;;7.93;;
15466;SDS011;7834;49.452;11.056;2024-01-30T04:10:43;10.00;;;7.40;;
15466;SDS011;7834;49.452;11.056;2024-01-30T04:13:08;9.60;;;7.57;;
15466;SDS011;7834;49.452;11.056;2024-01-30T04:15:34;11.00;;;7.30;;
15466;SDS011;7834;49.452;11.056;2024-01-30T04:18:00;11.10;;;7.00;;
15466;SDS011;7834;49.452;11.056;2024-01-30T04:20:25;9.07;;;6.70;;
15466;SDS011;7834;49.452;11.056;2024-01-30T04:22:51;9.57;;;7.20;;
15466;SDS011;7834;49.452;11.056;2024-01-30T04:25:16;9.77;;;7.03;;
15466;SDS011;7834;49.452;11.056;2024-01-30T04:27:42;9.23;;;7.10;;
15466;SDS011;7834;49.452;11.056;2024-01-30T04:30:08;11.00;;;7.20;;
15466;SDS011;7834;49.452;11.056;2024-01-30T04:32:34;10.57;;;7.57;;
15466;SDS011;7834;49.452;11.056;2024-01-30T04:35:03;11.03;;;7.13;;
15466;SDS011;7834;49.452;11.056;2024-01-30T04:37:29;11.03;;;7.80;;
15466;SDS011;7834;49.452;11.056;2024-01-30T04:39:54;10.48;;;7.47;;
15466;SDS011;7834;49.452;11.056;2024-01-30T04:42:20;10.87;;;7.30;;
15466;SDS011;7834;49.452;11.056;2024-01-30T04:44:46;10.23;;;7.33;;
15466;SDS011;7834;49.452;11.056;2024-01-30T04:47:11;12.75;;;7.45;;
15466;SDS011;7834;49.452;11.056;2024-01-30T04:49:40;11.43;;;7.70;;
15466;SDS011;7834;49.452;11.056;2024-01-30T04:52:06;11.50;;;7.57;;
15466;SDS011;7834;49.452;11.056;2024-01-30T04:54:32;9.85;;;7.32;;
15466;SDS011;7834;49.452;11.056;2024-01-30T04:56:58;9.52;;;7.00;;
15466;SDS011;7834;49.452;11.056;2024-01-30T04:59:23;10.82;;;7.32;;
15466;SDS011;7834;49.452;11.056;2024-01-30T05:01:49;11.33;;;7.53;;
15466;SDS011;7834;49.452;11.056;2024-01-30T05:04:15;9.52;;;7.20;;
15466;SDS011;7834;49.452;11.056;2024-01-30T05:06:40;10.20;;;7.53;;
15466;SDS011;7834;49.452;11.056;2024-01-30T05:09:06;10.10;;;7.60;;
15466;SDS011;7834;49.452;11.056;2024-01-30T05:11:36;10.47;;;8.00;;
15466;SDS011;7834;49.452;11.056;2024-01-30T05:14:02;10.18;;;8.10;;
15466;SDS011;7834;49.452;11.056;2024-01-30T05:16:27;11.17;;;8.50;;
15466;SDS011;7834;49.452;11.056;2024-01-30T05:18:53;12.40;;;8.50;;
15466;SDS011;7834;49.452;11.056;2024-01-30T05:21:18;11.23;;;8.73;;
15466;SDS011;7834;49.452;11.056;2024-01-30T05:23:44;11.63;;;8.63;;
15466;SDS011;7834;49.452;11.056;2024-01-30T05:26:10;11.57;;;8.10;;
15466;SDS011;7834;49.452;11.056;2024-01-30T05:28:35;12.00;;;8.37;;
15466;SDS011;7834;49.452;11.056;2024-01-30T05:31:01;10.65;;;8.38;;
15466;SDS011;7834;49.452;11.056;2024-01-30T05:33:27;10.48;;;8.30;;
15466;SDS011;7834;49.452;11.056;2024-01-30T05:35:53;10.67;;;8.20;;
15466;SDS011;7834;49.452;11.056;2024-01-30T05:38:21;11.93;;;8.40;;
15466;SDS011;7834;49.452;11.056;2024-01-30T05:40:46;10.63;;;8.00;;
15466;SDS011;7834;49.452;11.056;2024-01-30T05:43:12;12.47;;;8.50;;
15466;SDS011;7834;49.452;11.056;2024-01-30T05:45:37;11.43;;;8.43;;
15466;SDS011;7834;49.452;11.056;2024-01-30T05:48:03;12.20;;;8.40;;
15466;SDS011;7834;49.452;11.056;2024-01-30T05:50:29;12.27;;;9.40;;
15466;SDS011;7834;49.452;11.056;2024-01-30T05:52:55;13.67;;;9.33;;
15466;SDS011;7834;49.452;11.056;2024-01-30T05:55:20;12.18;;;8.88;;
15466;SDS011;7834;49.452;11.056;2024-01-30T05:57:46;11.33;;;8.60;;
15466;SDS011;7834;49.452;11.056;2024-01-30T06:00:12;11.07;;;8.85;;
15466;SDS011;7834;49.452;11.056;2024-01-30T06:02:38;13.05;;;9.00;;
15466;SDS011;7834;49.452;11.056;2024-01-30T06:05:03;12.80;;;9.43;;
15466;SDS011;7834;49.452;11.056;2024-01-30T06:07:29;13.67;;;9.30;;
15466;SDS011;7834;49.452;11.056;2024-01-30T06:09:54;13.40;;;9.60;;
15466;SDS011;7834;49.452;11.056;2024-01-30T06:12:20;14.93;;;9.27;;
15466;SDS011;7834;49.452;11.056;2024-01-30T06:14:46;11.85;;;9.00;;
15466;SDS011;7834;49.452;11.056;2024-01-30T06:17:11;12.37;;;9.33;;
15466;SDS011;7834;49.452;11.056;2024-01-30T06:19:40;11.23;;;9.23;;
15466;SDS011;7834;49.452;11.056;2024-01-30T06:22:06;12.68;;;9.52;;
15466;SDS011;7834;49.452;11.056;2024-01-30T06:24:31;13.37;;;9.90;;
15466;SDS011;7834;49.452;11.056;2024-01-30T06:26:57;16.30;;;10.23;;
15466;SDS011;7834;49.452;11.056;2024-01-30T06:29:23;14.13;;;10.10;;
15466;SDS011;7834;49.452;11.056;2024-01-30T06:31:50;14.10;;;10.57;;
15466;SDS011;7834;49.452;11.056;2024-01-30T06:34:15;15.27;;;10.80;;
15466;SDS011;7834;49.452;11.056;2024-01-30T06:36:41;16.13;;;11.27;;
15466;SDS011;7834;49.452;11.056;2024-01-30T06:39:07;15.80;;;11.70;;
15466;SDS011;7834;49.452;11.056;2024-01-30T06:41:32;14.52;;;11.15;;
15466;SDS011;7834;49.452;11.056;2024-01-30T06:43:58;16.90;;;11.60;;
15466;SDS011;7834;49.452;11.056;2024-01-30T06:46:24;19.50;;;11.65;;
15466;SDS011;7834;49.452;11.056;2024-01-30T06:48:49;15.15;;;11.18;;
15466;SDS011;7834;49.452;11.056;2024-01-30T06:51:15;15.53;;;11.67;;
15466;SDS011;7834;49.452;11.056;2024-01-30T06:53:41;16.63;;;11.48;;
15466;SDS011;7834;49.452;11.056;2024-01-30T06:56:06;16.00;;;12.00;;
15466;SDS011;7834;49.452;11.056;2024-01-30T06:58:32;16.98;;;12.57;;
15466;SDS011;7834;49.452;11.056;2024-01-30T07:01:00;15.15;;;12.32;;
15466;SDS011;7834;49.452;11.056;2024-01-30T07:03:26;15.80;;;12.10;;
15466;SDS011;7834;49.452;11.056;2024-01-30T07:05:52;18.60;;;12.83;;
15466;SDS011;7834;49.452;11.056;2024-01-30T07:08:17;20.97;;;13.23;;
15466;SDS011;7834;49.452;11.056;2024-01-30T07:10:43;20.10;;;12.70;;
15466;SDS011;7834;49.452;11.056;2024-01-30T07:13:09;17.80;;;13.17;;
15466;SDS011;7834;49.452;11.056;2024-01-30T07:15:35;16.23;;;13.07;;
15466;SDS011;7834;49.452;11.056;2024-01-30T07:18:02;18.15;;;12.80;;
15466;SDS011;7834;49.452;11.056;2024-01-30T07:20:27;18.50;;;13.30;;
15466;SDS011;7834;49.452;11.056;2024-01-30T07:22:55;19.67;;;14.00;;
15466;SDS011;7834;49.452;11.056;2024-01-30T07:25:21;22.47;;;14.17;;
15466;SDS011;7834;49.452;11.056;2024-01-30T07:27:46;18.05;;;13.15;;
15466;SDS011;7834;49.452;11.056;2024-01-30T07:30:12;18.97;;;12.97;;
15466;SDS011;7834;49.452;11.056;2024-01-30T07:32:38;19.48;;;13.60;;
15466;SDS011;7834;49.452;11.056;2024-01-30T07:35:03;17.13;;;13.20;;
15466;SDS011;7834;49.452;11.056;2024-01-30T07:37:29;17.90;;;13.27;;
15466;SDS011;7834;49.452;11.056;2024-01-30T07:39:54;17.57;;;13.40;;
15466;SDS011;7834;49.452;11.056;2024-01-30T07:42:20;19.00;;;13.97;;
15466;SDS011;7834;49.452;11.056;2024-01-30T07:44:45;21.07;;;13.87;;
15466;SDS011;7834;49.452;11.056;2024-01-30T07:47:11;18.38;;;13.80;;
15466;SDS011;7834;49.452;11.056;2024-01-30T07:49:36;20.10;;;14.57;;
15466;SDS011;7834;49.452;11.056;2024-01-30T07:52:03;25.58;;;14.60;;
15466;SDS011;7834;49.452;11.056;2024-01-30T07:54:30;22.13;;;14.57;;
15466;SDS011;7834;49.452;11.056;2024-01-30T07:56:58;20.75;;;14.75;;
15466;SDS011;7834;49.452;11.056;2024-01-30T07:59:24;17.15;;;14.35;;
15466;SDS011;7834;49.452;11.056;2024-01-30T08:01:50;23.40;;;16.40;;
15466;SDS011;7834;49.452;11.056;2024-01-30T08:04:15;20.77;;;14.90;;
15466;SDS011;7834;49.452;11.056;2024-01-30T08:06:41;19.13;;;15.10;;
15466;SDS011;7834;49.452;11.056;2024-01-30T08:09:06;22.08;;;15.85;;
15466;SDS011;7834;49.452;11.056;2024-01-30T08:11:32;21.50;;;15.40;;
15466;SDS011;7834;49.452;11.056;2024-01-30T08:13:58;24.57;;;15.57;;
15466;SDS011;7834;49.452;11.056;2024-01-30T08:16:23;21.15;;;15.73;;
15466;SDS011;7834;49.452;11.056;2024-01-30T08:18:49;19.57;;;15.33;;
15466;SDS011;7834;49.452;11.056;2024-01-30T08:21:14;20.43;;;15.60;;
15466;SDS011;7834;49.452;11.056;2024-01-30T08:23:40;21.08;;;15.93;;
15466;SDS011;7834;49.452;11.056;2024-01-30T08:26:05;21.20;;;15.17;;
15466;SDS011;7834;49.452;11.056;2024-01-30T08:28:31;23.60;;;15.68;;
15466;SDS011;7834;49.452;11.056;2024-01-30T08:30:57;23.13;;;15.43;;
15466;SDS011;7834;49.452;11.056;2024-01-30T08:33:22;19.13;;;15.50;;
15466;SDS011;7834;49.452;11.056;2024-01-30T08:35:48;20.40;;;14.90;;
15466;SDS011;7834;49.452;11.056;2024-01-30T08:38:13;18.23;;;14.87;;
15466;SDS011;7834;49.452;11.056;2024-01-30T08:40:39;32.05;;;15.90;;
15466;SDS011;7834;49.452;11.056;2024-01-30T08:43:05;29.83;;;15.87;;
15466;SDS011;7834;49.452;11.056;2024-01-30T08:45:30;32.63;;;16.52;;
15466;SDS011;7834;49.452;11.056;2024-01-30T08:47:56;34.73;;;16.10;;
15466;SDS011;7834;49.452;11.056;2024-01-30T08:50:22;25.73;;;15.65;;
15466;SDS011;7834;49.452;11.056;2024-01-30T08:52:47;22.50;;;15.60;;
15466;SDS011;7834;49.452;11.056;2024-01-30T08:55:13;23.13;;;15.30;;
15466;SDS011;7834;49.452;11.056;2024-01-30T08:57:38;19.83;;;14.93;;
15466;SDS011;7834;49.452;11.056;2024-01-30T09:00:04;19.65;;;14.82;;
15466;SDS011;7834;49.452;11.056;2024-01-30T09:02:32;25.75;;;15.18;;
15466;SDS011;7834;49.452;11.056;2024-01-30T09:04:57;26.95;;;15.80;;
15466;SDS011;7834;49.452;11.056;2024-01-30T09:07:23;23.60;;;15.33;;
15466;SDS011;7834;49.452;11.056;2024-01-30T09:09:48;37.17;;;17.83;;
15466;SDS011;7834;49.452;11.056;2024-01-30T09:12:14;25.13;;;15.77;;
15466;SDS011;7834;49.452;11.056;2024-01-30T09:14:40;29.40;;;15.90;;
15466;SDS011;7834;49.452;11.056;2024-01-30T09:17:08;21.30;;;15.05;;
15466;SDS011;7834;49.452;11.056;2024-01-30T09:19:34;24.13;;;15.38;;
15466;SDS011;7834;49.452;11.056;2024-01-30T09:21:59;25.77;;;15.50;;
15466;SDS011;7834;49.452;11.056;2024-01-30T09:24:26;22.50;;;15.05;;
15466;SDS011;7834;49.452;11.056;2024-01-30T09:26:52;26.80;;;15.23;;
15466;SDS011;7834;49.452;11.056;2024-01-30T09:29:17;22.27;;;14.27;;
15466;SDS011;7834;49.452;11.056;2024-01-30T09:31:44;20.57;;;14.70;;
15466;SDS011;7834;49.452;11.056;2024-01-30T09:34:09;20.70;;;15.50;;
15466;SDS011;7834;49.452;11.056;2024-01-30T09:36:35;20.10;;;15.07;;
15466;SDS011;7834;49.452;11.056;2024-01-30T09:39:00;19.30;;;14.33;;
15466;SDS011;7834;49.452;11.056;2024-01-30T09:41:26;18.17;;;14.10;;
15466;SDS011;7834;49.452;11.056;2024-01-30T09:43:52;18.02;;;13.50;;
15466;SDS011;7834;49.452;11.056;2024-01-30T09:46:19;17.17;;;13.15;;
15466;SDS011;7834;49.452;11.056;2024-01-30T09:48:46;19.00;;;14.00;;
15466;SDS011;7834;49.452;11.056;2024-01-30T09:51:14;20.02;;;13.85;;
15466;SDS011;7834;49.452;11.056;2024-01-30T09:53:39;18.15;;;13.32;;
15466;SDS011;7834;49.452;11.056;2024-01-30T09:56:05;22.43;;;14.23;;
15466;SDS011;7834;49.452;11.056;2024-01-30T09:58:31;23.33;;;13.68;;
15466;SDS011;7834;49.452;11.056;2024-01-30T10:00:56;18.43;;;13.40;;
15466;SDS011;7834;49.452;11.056;2024-01-30T10:03:22;19.57;;;13.20;;
15466;SDS011;7834;49.452;11.056;2024-01-30T10:05:50;18.67;;;14.57;;
15466;SDS011;7834;49.452;11.056;2024-01-30T10:08:17;22.65;;;14.10;;
15466;SDS011;7834;49.452;11.056;2024-01-30T10:10:49;23.77;;;14.20;;
15466;SDS011;7834;49.452;11.056;2024-01-30T10:13:15;19.90;;;13.52;;
15466;SDS011;7834;49.452;11.056;2024-01-30T10:15:41;16.83;;;12.90;;
15466;SDS011;7834;49.452;11.056;2024-01-30T10:18:08;17.92;;;13.10;;
15466;SDS011;7834;49.452;11.056;2024-01-30T10:20:35;16.13;;;12.52;;
15466;SDS011;7834;49.452;11.056;2024-01-30T10:23:01;16.67;;;13.07;;
15466;SDS011;7834;49.452;11.056;2024-01-30T10:25:26;18.30;;;12.98;;
15466;SDS011;7834;49.452;11.056;2024-01-30T10:27:52;15.27;;;12.33;;
15466;SDS011;7834;49.452;11.056;2024-01-30T10:30:19;15.67;;;12.67;;
15466;SDS011;7834;49.452;11.056;2024-01-30T10:32:45;21.90;;;13.18;;
15466;SDS011;7834;49.452;11.056;2024-01-30T10:35:10;20.07;;;12.67;;
15466;SDS011;7834;49.452;11.056;2024-01-30T10:37:36;20.85;;;12.68;;
15466;SDS011;7834;49.452;11.056;2024-01-30T10:40:02;17.63;;;12.57;;
15466;SDS011;7834;49.452;11.056;2024-01-30T10:42:29;17.42;;;13.10;;
15466;SDS011;7834;49.452;11.056;2024-01-30T10:44:58;17.95;;;12.40;;
15466;SDS011;7834;49.452;11.056;2024-01-30T10:47:28;16.95;;;11.95;;
15466;SDS011;7834;49.452;11.056;2024-01-30T10:49:55;16.43;;;12.30;;
15466;SDS011;7834;49.452;11.056;2024-01-30T10:52:21;14.05;;;11.68;;
15466;SDS011;7834;49.452;11.056;2024-01-30T10:54:48;16.77;;;12.27;;
15466;SDS011;7834;49.452;11.056;2024-01-30T10:57:15;17.52;;;12.35;;
15466;SDS011;7834;49.452;11.056;2024-01-30T10:59:41;15.23;;;11.80;;
15466;SDS011;7834;49.452;11.056;2024-01-30T11:02:06;14.75;;;12.13;;
15466;SDS011;7834;49.452;11.056;2024-01-30T11:04:36;16.13;;;12.43;;
15466;SDS011;7834;49.452;11.056;2024-01-30T11:07:01;19.58;;;12.88;;
15466;SDS011;7834;49.452;11.056;2024-01-30T11:09:29;14.10;;;11.93;;
15466;SDS011;7834;49.452;11.056;2024-01-30T11:11:58;15.80;;;12.23;;
15466;SDS011;7834;49.452;11.056;2024-01-30T11:14:31;15.65;;;11.85;;
15466;SDS011;7834;49.452;11.056;2024-01-30T11:16:57;15.17;;;12.43;;
15466;SDS011;7834;49.452;11.056;2024-01-30T11:19:27;17.05;;;12.38;;
15466;SDS011;7834;49.452;11.056;2024-01-30T11:21:53;15.88;;;12.07;;
15466;SDS011;7834;49.452;11.056;2024-01-30T11:24:20;13.55;;;11.48;;
15466;SDS011;7834;49.452;11.056;2024-01-30T11:26:48;15.77;;;12.13;;
15466;SDS011;7834;49.452;11.056;2024-01-30T11:29:13;15.20;;;11.88;;
15466;SDS011;7834;49.452;11.056;2024-01-30T11:31:39;15.27;;;11.95;;
15466;SDS011;7834;49.452;11.056;2024-01-30T11:34:05;16.93;;;11.60;;
15466;SDS011;7834;49.452;11.056;2024-01-30T11:36:31;14.68;;;11.80;;
15466;SDS011;7834;49.452;11.056;2024-01-30T11:38:59;16.10;;;12.50;;
15466;SDS011;7834;49.452;11.056;2024-01-30T11:41:24;17.92;;;12.68;;
15466;SDS011;7834;49.452;11.056;2024-01-30T11:43:53;16.20;;;12.63;;
15466;SDS011;7834;49.452;11.056;2024-01-30T11:46:19;16.98;;;11.98;;
15466;SDS011;7834;49.452;11.056;2024-01-30T11:48:45;15.00;;;12.32;;
15466;SDS011;7834;49.452;11.056;2024-01-30T11:51:11;15.30;;;12.27;;
15466;SDS011;7834;49.452;11.056;2024-01-30T11:53:37;14.50;;;11.80;;
15466;SDS011;7834;49.452;11.056;2024-01-30T11:56:02;16.43;;;12.70;;
15466;SDS011;7834;49.452;11.056;2024-01-30T11:58:31;15.73;;;12.63;;
15466;SDS011;7834;49.452;11.056;2024-01-30T12:00:57;15.63;;;13.27;;
15466;SDS011;7834;49.452;11.056;2024-01-30T12:03:23;16.20;;;12.18;;
15466;SDS011;7834;49.452;11.056;2024-01-30T12:05:54;13.27;;;10.03;;
15466;SDS011;7834;49.452;11.056;2024-01-30T12:08:20;13.40;;;10.03;;
15466;SDS011;7834;49.452;11.056;2024-01-30T12:10:45;14.32;;;11.40;;
15466;SDS011;7834;49.452;11.056;2024-01-30T12:13:11;14.40;;;11.43;;
15466;SDS011;7834;49.452;11.056;2024-01-30T12:15:36;13.90;;;11.43;;
15466;SDS011;7834;49.452;11.056;2024-01-30T12:18:06;14.20;;;10.93;;
15466;SDS011;7834;49.452;11.056;2024-01-30T12:20:31;14.40;;;11.70;;
15466;SDS011;7834;49.452;11.056;2024-01-30T12:22:57;18.33;;;12.33;;
15466;SDS011;7834;49.452;11.056;2024-01-30T12:25:23;15.00;;;11.85;;
15466;SDS011;7834;49.452;11.056;2024-01-30T12:27:49;17.80;;;11.93;;
15466;SDS011;7834;49.452;11.056;2024-01-30T12:30:15;16.40;;;11.20;;
15466;SDS011;7834;49.452;11.056;2024-01-30T12:32:43;15.45;;;11.70;;
15466;SDS011;7834;49.452;11.056;2024-01-30T12:35:15;16.35;;;11.50;;
15466;SDS011;7834;49.452;11.056;2024-01-30T12:37:41;13.45;;;11.20;;
15466;SDS011;7834;49.452;11.056;2024-01-30T12:40:08;15.02;;;11.50;;
15466;SDS011;7834;49.452;11.056;2024-01-30T12:42:34;15.57;;;11.10;;
15466;SDS011;7834;49.452;11.056;2024-01-30T12:45:01;13.07;;;11.17;;
15466;SDS011;7834;49.452;11.056;2024-01-30T12:47:27;14.05;;;10.82;;
15466;SDS011;7834;49.452;11.056;2024-01-30T12:49:53;15.27;;;10.95;;
15466;SDS011;7834;49.452;11.056;2024-01-30T12:52:19;14.27;;;11.00;;
15466;SDS011;7834;49.452;11.056;2024-01-30T12:54:45;15.65;;;10.98;;
15466;SDS011;7834;49.452;11.056;2024-01-30T12:57:10;15.32;;;10.98;;
15466;SDS011;7834;49.452;11.056;2024-01-30T12:59:36;15.17;;;11.00;;
15466;SDS011;7834;49.452;11.056;2024-01-30T13:02:02;15.13;;;10.80;;
15466;SDS011;7834;49.452;11.056;2024-01-30T13:04:29;13.10;;;10.45;;
15466;SDS011;7834;49.452;11.056;2024-01-30T13:06:54;14.38;;;10.32;;
15466;SDS011;7834;49.452;11.056;2024-01-30T13:09:20;13.95;;;10.85;;
15466;SDS011;7834;49.452;11.056;2024-01-30T13:11:45;14.57;;;10.70;;
15466;SDS011;7834;49.452;11.056;2024-01-30T13:14:11;12.73;;;10.07;;
15466;SDS011;7834;49.452;11.056;2024-01-30T13:16:37;13.40;;;10.53;;
15466;SDS011;7834;49.452;11.056;2024-01-30T13:19:03;14.00;;;10.55;;
15466;SDS011;7834;49.452;11.056;2024-01-30T13:21:29;13.63;;;10.13;;
15466;SDS011;7834;49.452;11.056;2024-01-30T13:23:54;14.93;;;10.27;;
15466;SDS011;7834;49.452;11.056;2024-01-30T13:26:20;15.20;;;10.13;;
15466;SDS011;7834;49.452;11.056;2024-01-30T13:28:46;14.25;;;10.52;;
15466;SDS011;7834;49.452;11.056;2024-01-30T13:31:12;13.73;;;11.05;;
15466;SDS011;7834;49.452;11.056;2024-01-30T13:33:37;15.43;;;11.70;;
15466;SDS011;7834;49.452;11.056;2024-01-30T13:36:03;18.23;;;12.30;;
15466;SDS011;7834;49.452;11.056;2024-01-30T13:38:29;13.50;;;11.68;;
15466;SDS011;7834;49.452;11.056;2024-01-30T13:40:54;13.13;;;10.53;;
15466;SDS011;7834;49.452;11.056;2024-01-30T13:43:20;12.30;;;10.43;;
15466;SDS011;7834;49.452;11.056;2024-01-30T13:45:45;16.20;;;11.30;;
15466;SDS011;7834;49.452;11.056;2024-01-30T13:48:11;16.10;;;10.83;;
15466;SDS011;7834;49.452;11.056;2024-01-30T13:50:37;13.10;;;10.52;;
15466;SDS011;7834;49.452;11.056;2024-01-30T13:53:02;14.63;;;10.97;;
15466;SDS011;7834;49.452;11.056;2024-01-30T13:55:29;15.10;;;11.40;;
15466;SDS011;7834;49.452;11.056;2024-01-30T13:57:55;13.97;;;11.33;;
15466;SDS011;7834;49.452;11.056;2024-01-30T14:00:21;16.30;;;11.48;;
15466;SDS011;7834;49.452;11.056;2024-01-30T14:02:47;14.38;;;11.73;;
15466;SDS011;7834;49.452;11.056;2024-01-30T14:05:13;14.30;;;11.77;;
15466;SDS011;7834;49.452;11.056;2024-01-30T14:07:39;14.43;;;11.55;;
15466;SDS011;7834;49.452;11.056;2024-01-30T14:10:06;16.13;;;11.15;;
15466;SDS011;7834;49.452;11.056;2024-01-30T14:12:31;14.13;;;11.13;;
15466;SDS011;7834;49.452;11.056;2024-01-30T14:14:57;13.77;;;11.90;;
15466;SDS011;7834;49.452;11.056;2024-01-30T14:17:22;13.47;;;11.07;;
15466;SDS011;7834;49.452;11.056;2024-01-30T14:19:48;16.20;;;11.63;;
15466;SDS011;7834;49.452;11.056;2024-01-30T14:22:13;14.13;;;11.57;;